Time;durP1;ratioP1;P1;durP2;ratioP2;P2;SDS_P1;SDS_P2;PMS_P1;PMS_P2;Temp;Humidity;BMP_temperature;BMP_pressure;BME280_temperature;BME280_humidity;BME280_pressure;Samples;Min_cycle;Max_cycle;Signal;HPM_P1;HPM_P2
2023/08/11 00:05:00;;;;;;;1.27;1.00;;;;;;;;;;10339806;28;20100;-84
2023/08/11 00:10:05;;;;;;;2.03;1.10;;;;;;;;;;10329617;28;20104;-83
2023/08/11 00:15:09;;;;;;;1.70;1.05;;;;;;;;;;10344217;28;20061;-84
2023/08/11 00:20:14;;;;;;;2.58;1.15;;;;;;;;;;10328016;28;20087;-83
2023/08/11 00:25:17;;;;;;;3.40;1.13;;;;;;;;;;10323097;28;20093;-84
2023/08/11 00:30:20;;;;;;;3.08;1.10;;;;;;;;;;10329181;28;20054;-83
2023/08/11 00:35:25;;;;;;;4.32;1.60;;;;;;;;;;10334060;28;20132;-83
2023/08/11 00:40:30;;;;;;;2.55;1.30;;;;;;;;;;10331395;28;20072;-83
2023/08/11 00:45:34;;;;;;;3.22;1.30;;;;;;;;;;10355085;28;20106;-83
2023/08/11 00:50:39;;;;;;;2.60;1.20;;;;;;;;;;10337296;28;20049;-83
2023/08/11 00:55:42;;;;;;;1.50;1.00;;;;;;;;;;10343320;28;20077;-84
2023/08/11 01:00:47;;;;;;;1.88;1.02;;;;;;;;;;10344904;28;20139;-83
2023/08/11 01:05:58;;;;;;;1.77;1.40;;;;;;;;;;10340007;28;20076;-83
2023/08/11 01:11:12;;;;;;;3.45;0.95;;;;;;;;;;10338837;28;20551;-84
2023/08/11 01:16:17;;;;;;;1.08;0.90;;;;;;;;;;10328152;28;20668;-82
2023/08/11 01:21:25;;;;;;;3.20;1.10;;;;;;;;;;10328040;28;20045;-84
2023/08/11 01:26:30;;;;;;;1.42;1.00;;;;;;;;;;10336437;28;20042;-84
2023/08/11 01:31:33;;;;;;;1.15;0.90;;;;;;;;;;10357749;28;20562;-84
2023/08/11 01:36:37;;;;;;;5.05;1.20;;;;;;;;;;10339061;28;20110;-84
2023/08/11 01:41:43;;;;;;;2.33;0.90;;;;;;;;;;10330894;28;20056;-84
2023/08/11 01:46:48;;;;;;;2.08;0.90;;;;;;;;;;10333801;28;20132;-84
2023/08/11 01:51:51;;;;;;;2.10;0.90;;;;;;;;;;10328359;28;20724;-84
2023/08/11 01:56:57;;;;;;;1.08;0.75;;;;;;;;;;10336474;28;20562;-84
2023/08/11 02:02:00;;;;;;;2.75;1.13;;;;;;;;;;10340529;28;20537;-83
2023/08/11 02:07:04;;;;;;;2.40;1.38;;;;;;;;;;10352990;28;20069;-83
2023/08/11 02:12:10;;;;;;;1.45;0.88;;;;;;;;;;10344268;28;20060;-84
2023/08/11 02:17:13;;;;;;;1.57;0.70;;;;;;;;;;10337447;28;20801;-84
2023/08/11 02:22:16;;;;;;;1.35;0.80;;;;;;;;;;10323524;28;20069;-85
2023/08/11 02:27:21;;;;;;;1.80;1.10;;;;;;;;;;10328506;28;20133;-84
2023/08/11 02:32:25;;;;;;;1.42;0.90;;;;;;;;;;10331266;28;20097;-84
2023/08/11 02:37:29;;;;;;;1.48;0.95;;;;;;;;;;10349749;28;20049;-84
2023/08/11 02:42:34;;;;;;;2.55;0.90;;;;;;;;;;10330347;28;20046;-83
2023/08/11 02:47:37;;;;;;;2.22;0.98;;;;;;;;;;10344491;28;20124;-84
2023/08/11 02:52:40;;;;;;;2.30;1.02;;;;;;;;;;10351695;28;20550;-84
2023/08/11 02:57:45;;;;;;;2.33;1.08;;;;;;;;;;10339919;28;20065;-83
2023/08/11 03:02:49;;;;;;;1.67;0.88;;;;;;;;;;10336477;28;20138;-84
2023/08/11 03:07:53;;;;;;;1.70;0.85;;;;;;;;;;10350498;28;20048;-84
2023/08/11 03:12:58;;;;;;;0.93;0.70;;;;;;;;;;10341479;28;20046;-84
2023/08/11 03:18:01;;;;;;;1.50;1.10;;;;;;;;;;10336306;28;20617;-84
2023/08/11 03:23:06;;;;;;;0.80;0.77;;;;;;;;;;10348261;28;20038;-84
2023/08/11 03:28:10;;;;;;;2.33;1.15;;;;;;;;;;10340494;28;20179;-84
2023/08/11 03:33:17;;;;;;;1.17;1.00;;;;;;;;;;10337792;28;20137;-84
2023/08/11 03:38:30;;;;;;;1.20;0.90;;;;;;;;;;10326671;28;20072;-85
2023/08/11 03:43:35;;;;;;;1.60;0.82;;;;;;;;;;10351597;28;20034;-84
2023/08/11 03:48:38;;;;;;;0.98;0.80;;;;;;;;;;10321510;28;20039;-84
2023/08/11 03:53:42;;;;;;;1.40;0.95;;;;;;;;;;10341820;28;20101;-84
2023/08/11 03:58:47;;;;;;;0.73;0.73;;;;;;;;;;10353228;28;20035;-84
2023/08/11 04:03:50;;;;;;;2.85;0.70;;;;;;;;;;10343992;28;20042;-84
2023/08/11 04:08:54;;;;;;;1.27;1.02;;;;;;;;;;10344059;28;20464;-85
2023/08/11 04:13:58;;;;;;;3.00;1.00;;;;;;;;;;10335114;28;20105;-87
2023/08/11 04:19:02;;;;;;;1.17;0.85;;;;;;;;;;10325078;28;20487;-86
2023/08/11 04:24:06;;;;;;;1.00;0.88;;;;;;;;;;10322605;28;20046;-87
2023/08/11 04:29:12;;;;;;;1.05;0.80;;;;;;;;;;10327709;28;20423;-86
2023/08/11 04:34:16;;;;;;;1.65;0.88;;;;;;;;;;10321383;28;20054;-87
2023/08/11 04:39:20;;;;;;;2.95;1.17;;;;;;;;;;10343901;28;20585;-86
2023/08/11 04:44:25;;;;;;;1.50;1.20;;;;;;;;;;10334881;28;20052;-86
2023/08/11 04:49:29;;;;;;;0.77;0.70;;;;;;;;;;10323912;28;20117;-86
2023/08/11 04:54:32;;;;;;;1.70;0.90;;;;;;;;;;10330676;28;20476;-84
2023/08/11 04:59:37;;;;;;;1.33;0.80;;;;;;;;;;10344348;28;20030;-83
2023/08/11 05:04:40;;;;;;;1.15;0.98;;;;;;;;;;10357129;28;20503;-83
2023/08/11 05:09:44;;;;;;;3.83;1.58;;;;;;;;;;10358476;28;20065;-82
2023/08/11 05:14:48;;;;;;;3.17;0.80;;;;;;;;;;10328428;28;20061;-83
2023/08/11 05:19:52;;;;;;;1.25;0.90;;;;;;;;;;10332123;28;20268;-84
2023/08/11 05:24:55;;;;;;;2.10;1.08;;;;;;;;;;10360057;28;21553;-84
2023/08/11 05:30:00;;;;;;;0.88;0.73;;;;;;;;;;10352536;28;20222;-84
2023/08/11 05:35:08;;;;;;;3.08;0.80;;;;;;;;;;10336005;28;20049;-84
2023/08/11 05:40:12;;;;;;;1.33;0.90;;;;;;;;;;10352393;28;20065;-83
2023/08/11 05:45:18;;;;;;;1.90;1.13;;;;;;;;;;10334343;28;20052;-83
2023/08/11 05:50:21;;;;;;;1.25;0.80;;;;;;;;;;10361222;28;20071;-84
2023/08/11 05:55:24;;;;;;;1.27;0.75;;;;;;;;;;10342025;28;20204;-83
2023/08/11 06:00:29;;;;;;;1.50;0.95;;;;;;;;;;10357464;28;20045;-84
2023/08/11 06:05:40;;;;;;;1.23;0.75;;;;;;;;;;10342543;28;20210;-84
2023/08/11 06:10:44;;;;;;;2.03;1.00;;;;;;;;;;10356541;28;20065;-84
2023/08/11 06:15:49;;;;;;;2.50;0.85;;;;;;;;;;10349699;28;20161;-85
2023/08/11 06:20:53;;;;;;;0.80;0.63;;;;;;;;;;10354900;28;20026;-84
2023/08/11 06:25:56;;;;;;;1.95;0.77;;;;;;;;;;10327122;28;20124;-84
2023/08/11 06:31:02;;;;;;;1.23;0.90;;;;;;;;;;10355115;28;20316;-84
2023/08/11 06:36:08;;;;;;;3.38;1.00;;;;;;;;;;10356998;28;20056;-84
2023/08/11 06:41:11;;;;;;;1.98;0.95;;;;;;;;;;10339412;28;20478;-84
2023/08/11 06:46:16;;;;;;;1.35;0.95;;;;;;;;;;10339081;28;20408;-84
2023/08/11 06:51:21;;;;;;;;;;;;;;;;;;10353356;28;20104;-84
2023/08/11 06:56:24;;;;;;;1.55;0.70;;;;;;;;;;10340788;28;20024;-84
2023/08/11 07:01:29;;;;;;;2.05;0.90;;;;;;;;;;10349805;28;20038;-84
2023/08/11 07:06:32;;;;;;;1.75;0.98;;;;;;;;;;10338555;28;20092;-84
2023/08/11 07:11:35;;;;;;;2.60;0.88;;;;;;;;;;10352166;28;21157;-84
2023/08/11 07:16:44;;;;;;;1.10;0.90;;;;;;;;;;10345081;28;20042;-84
2023/08/11 07:21:47;;;;;;;0.73;0.70;;;;;;;;;;10341660;28;20049;-83
2023/08/11 07:26:52;;;;;;;1.55;0.90;;;;;;;;;;10343090;28;20104;-84
2023/08/11 07:31:58;;;;;;;4.03;1.10;;;;;;;;;;10339803;28;20140;-84
2023/08/11 07:37:01;;;;;;;2.72;1.20;;;;;;;;;;10341024;28;20484;-84
2023/08/11 07:42:05;;;;;;;2.28;1.05;;;;;;;;;;10325919;28;20085;-84
2023/08/11 07:47:09;;;;;;;1.45;0.70;;;;;;;;;;10351281;28;20129;-83
2023/08/11 07:52:17;;;;;;;1.77;1.10;;;;;;;;;;10356298;28;20157;-84
2023/08/11 07:57:25;;;;;;;1.83;0.80;;;;;;;;;;10338506;28;20571;-84
2023/08/11 08:02:29;;;;;;;0.65;0.57;;;;;;;;;;10351444;28;20515;-83
2023/08/11 08:07:32;;;;;;;0.63;0.55;;;;;;;;;;10338707;28;20069;-84
2023/08/11 08:12:37;;;;;;;1.08;0.70;;;;;;;;;;10334976;28;20069;-84
2023/08/11 08:17:49;;;;;;;1.33;0.70;;;;;;;;;;10349074;28;20062;-84
2023/08/11 08:22:52;;;;;;;0.90;0.77;;;;;;;;;;10344090;28;20109;-84
2023/08/11 08:27:55;;;;;;;0.52;0.52;;;;;;;;;;10337039;28;20145;-84
2023/08/11 08:33:08;;;;;;;1.05;0.80;;;;;;;;;;10351940;28;20129;-83
2023/08/11 08:38:13;;;;;;;1.27;0.57;;;;;;;;;;10357844;28;20053;-83
2023/08/11 08:43:17;;;;;;;2.47;0.82;;;;;;;;;;10341198;28;20480;-84
2023/08/11 08:48:31;;;;;;;1.30;0.90;;;;;;;;;;10343827;28;20045;-84
2023/08/11 08:53:34;;;;;;;1.48;0.70;;;;;;;;;;10327579;28;20069;-84
2023/08/11 08:58:38;;;;;;;1.80;0.88;;;;;;;;;;10338445;28;20046;-83
2023/08/11 09:03:45;;;;;;;1.02;0.60;;;;;;;;;;10337913;28;20129;-84
2023/08/11 09:08:49;;;;;;;1.13;0.93;;;;;;;;;;10358700;28;20069;-85
2023/08/11 10:29:33;;;;;;;1.00;0.85;;;;;;;;;;10349157;28;20034;-93
2023/08/11 10:34:40;;;;;;;1.30;1.20;;;;;;;;;;10365989;28;20043;-90
2023/08/11 10:40:11;;;;;;;1.48;0.85;;;;;;;;;;10307472;28;20070;-92
2023/08/11 10:45:18;;;;;;;0.85;0.80;;;;;;;;;;10298430;28;20086;-91
2023/08/11 10:50:23;;;;;;;1.48;1.10;;;;;;;;;;10308639;28;20085;-90
2023/08/11 10:55:33;;;;;;;2.67;1.23;;;;;;;;;;10316152;28;20051;-91
2023/08/11 11:00:43;;;;;;;2.15;0.90;;;;;;;;;;10308861;28;20520;-91
2023/08/11 11:05:47;;;;;;;1.70;1.10;;;;;;;;;;10331118;28;20050;-91
2023/08/11 11:10:57;;;;;;;1.17;1.08;;;;;;;;;;10297512;28;20061;-90
2023/08/11 11:16:02;;;;;;;2.15;0.90;;;;;;;;;;10304489;28;20050;-91
2023/08/11 11:21:09;;;;;;;2.15;1.00;;;;;;;;;;10323044;28;20510;-91
2023/08/11 11:26:14;;;;;;;0.95;0.88;;;;;;;;;;10322575;28;20542;-93
2023/08/11 11:31:29;;;;;;;1.58;0.93;;;;;;;;;;10311644;28;20068;-90
2023/08/11 11:36:38;;;;;;;0.85;0.75;;;;;;;;;;10312973;28;20044;-88
2023/08/11 12:09:26;;;;;;;1.25;0.73;;;;;;;;;;10306987;28;20070;-89
2023/08/11 12:14:33;;;;;;;0.77;0.73;;;;;;;;;;10321090;28;20585;-89
2023/08/11 12:19:47;;;;;;;0.85;0.70;;;;;;;;;;10314650;28;20096;-88
2023/08/11 12:24:52;;;;;;;1.60;0.80;;;;;;;;;;10312545;28;20046;-88
2023/08/11 12:37:27;;;;;;;0.63;0.63;;;;;;;;;;10325023;28;20057;-88
2023/08/11 12:42:39;;;;;;;0.55;0.52;;;;;;;;;;10290747;28;20105;-90
2023/08/11 12:47:42;;;;;;;0.80;0.70;;;;;;;;;;10291187;28;20396;-88
2023/08/11 12:52:48;;;;;;;1.10;0.73;;;;;;;;;;10307410;28;20046;-88
2023/08/11 12:57:54;;;;;;;1.08;0.82;;;;;;;;;;10312008;28;20058;-88
2023/08/11 13:03:01;;;;;;;0.70;0.70;;;;;;;;;;10318924;28;20499;-88
2023/08/11 13:08:05;;;;;;;1.75;1.00;;;;;;;;;;10328854;28;20085;-87
2023/08/11 13:13:14;;;;;;;1.40;0.90;;;;;;;;;;10296884;28;20050;-89
2023/08/11 13:18:18;;;;;;;1.40;0.80;;;;;;;;;;10329054;28;20050;-87
2023/08/11 13:23:21;;;;;;;1.10;0.80;;;;;;;;;;10308827;28;20291;-87
2023/08/11 13:28:29;;;;;;;1.45;0.80;;;;;;;;;;10326865;28;20047;-89
2023/08/11 13:33:33;;;;;;;0.75;0.60;;;;;;;;;;10304959;28;20624;-88
2023/08/11 13:38:42;;;;;;;1.57;0.80;;;;;;;;;;10300078;28;20050;-87
2023/08/11 13:43:47;;;;;;;1.15;0.60;;;;;;;;;;10315146;28;20046;-87
2023/08/11 13:48:51;;;;;;;0.73;0.65;;;;;;;;;;10322116;28;20042;-86
2023/08/11 13:53:54;;;;;;;1.88;0.60;;;;;;;;;;10322063;28;20574;-87
2023/08/11 13:58:59;;;;;;;0.88;0.70;;;;;;;;;;10302589;28;20687;-87
2023/08/11 14:04:02;;;;;;;0.57;0.57;;;;;;;;;;10298862;28;20053;-87
2023/08/11 14:09:06;;;;;;;2.75;1.00;;;;;;;;;;10323416;28;20042;-88
2023/08/11 14:14:11;;;;;;;1.80;0.83;;;;;;;;;;10302402;28;20623;-87
2023/08/11 14:19:14;;;;;;;;;;;;;;;;;;10301221;28;20385;-86
2023/08/11 14:24:18;;;;;;;0.77;0.70;;;;;;;;;;10304731;28;19933;-87
2023/08/11 14:29:22;;;;;;;1.73;0.87;;;;;;;;;;10312710;28;20137;-85
2023/08/11 14:34:26;;;;;;;;;;;;;;;;;;10319374;28;20138;-86
2023/08/11 14:39:30;;;;;;;0.77;0.60;;;;;;;;;;10307958;28;20413;-86
2023/08/11 14:44:34;;;;;;;0.93;0.77;;;;;;;;;;10301121;28;20411;-86
2023/08/11 14:49:37;;;;;;;0.65;0.50;;;;;;;;;;10313648;28;20141;-86
2023/08/11 14:54:41;;;;;;;0.90;0.82;;;;;;;;;;10310238;28;20065;-87
2023/08/11 14:59:46;;;;;;;0.93;0.70;;;;;;;;;;10305410;28;20057;-87
2023/08/11 15:04:49;;;;;;;;;;;;;;;;;;10320625;28;20129;-86
2023/08/11 15:09:52;;;;;;;1.58;0.80;;;;;;;;;;10324665;28;19968;-86
2023/08/11 15:14:57;;;;;;;1.10;0.80;;;;;;;;;;10305519;28;20061;-86
2023/08/11 15:20:00;;;;;;;1.23;0.80;;;;;;;;;;10297482;28;20350;-85
2023/08/11 15:25:05;;;;;;;1.08;0.80;;;;;;;;;;10300451;28;20065;-87
2023/08/11 15:30:11;;;;;;;1.00;0.90;;;;;;;;;;10301755;28;20046;-86
2023/08/11 15:35:16;;;;;;;0.88;0.85;;;;;;;;;;10300644;28;20047;-88
2023/08/11 15:40:19;;;;;;;;;;;;;;;;;;10311413;28;20389;-87
2023/08/11 15:45:24;;;;;;;1.65;0.63;;;;;;;;;;10306305;28;20021;-86
2023/08/11 15:50:27;;;;;;;1.90;0.80;;;;;;;;;;10318352;28;20050;-87
2023/08/11 15:55:31;;;;;;;1.60;1.30;;;;;;;;;;10309613;28;20125;-87
2023/08/11 16:00:40;;;;;;;0.95;0.80;;;;;;;;;;10323643;28;20050;-87
2023/08/11 16:05:44;;;;;;;;;;;;;;;;;;10326916;28;20047;-87
2023/08/11 16:10:47;;;;;;;5.32;1.52;;;;;;;;;;10315904;28;19922;-86
2023/08/11 16:15:52;;;;;;;2.92;1.38;;;;;;;;;;10294683;28;20086;-88
2023/08/11 16:20:56;;;;;;;1.52;1.02;;;;;;;;;;10313709;28;20470;-87
2023/08/11 16:25:59;;;;;;;1.23;0.93;;;;;;;;;;10302271;28;20046;-88
2023/08/11 16:31:04;;;;;;;1.00;0.77;;;;;;;;;;10298776;28;20129;-87
2023/08/11 16:36:07;;;;;;;0.82;0.73;;;;;;;;;;10307563;28;20113;-87
2023/08/11 16:41:14;;;;;;;1.20;0.85;;;;;;;;;;10315115;28;20046;-88
2023/08/11 16:46:20;;;;;;;1.00;0.85;;;;;;;;;;10302450;28;20046;-87
2023/08/11 16:51:24;;;;;;;2.17;0.80;;;;;;;;;;10296096;28;20467;-87
2023/08/11 16:56:29;;;;;;;1.30;0.90;;;;;;;;;;10324492;28;20042;-87
2023/08/11 17:01:35;;;;;;;1.45;0.70;;;;;;;;;;10298840;28;20077;-87
2023/08/11 17:06:38;;;;;;;0.85;0.65;;;;;;;;;;10298195;28;20050;-87
2023/08/11 17:11:41;;;;;;;0.80;0.80;;;;;;;;;;10315111;28;20527;-87
2023/08/11 17:16:46;;;;;;;1.08;0.70;;;;;;;;;;10296611;28;20101;-87
2023/08/11 17:21:49;;;;;;;0.88;0.85;;;;;;;;;;10314703;28;20097;-87
2023/08/11 17:26:53;;;;;;;1.85;0.80;;;;;;;;;;10317123;28;20105;-87
2023/08/11 17:31:58;;;;;;;1.50;0.90;;;;;;;;;;10313795;28;20124;-88
2023/08/11 17:37:02;;;;;;;1.02;0.77;;;;;;;;;;10332000;28;20038;-88
2023/08/11 17:42:07;;;;;;;1.90;0.70;;;;;;;;;;10307630;28;20053;-88
2023/08/11 17:47:12;;;;;;;1.27;1.10;;;;;;;;;;10297250;28;20046;-88
2023/08/11 17:52:15;;;;;;;1.63;0.77;;;;;;;;;;10297202;28;20451;-88
2023/08/11 17:57:20;;;;;;;1.13;0.80;;;;;;;;;;10304261;28;20128;-88
2023/08/11 18:02:24;;;;;;;1.83;0.80;;;;;;;;;;10298117;28;20060;-88
2023/08/11 18:07:28;;;;;;;1.10;0.90;;;;;;;;;;10317863;28;20046;-88
2023/08/11 18:12:31;;;;;;;1.00;0.90;;;;;;;;;;10302836;28;20367;-88
2023/08/11 18:17:36;;;;;;;2.20;0.90;;;;;;;;;;10320907;28;20062;-88
2023/08/11 18:22:43;;;;;;;1.33;0.80;;;;;;;;;;10304450;28;20069;-88
2023/08/11 18:27:50;;;;;;;3.50;1.08;;;;;;;;;;10303537;28;20113;-88
2023/08/11 18:32:55;;;;;;;1.85;1.20;;;;;;;;;;10300171;28;20041;-88
2023/08/11 18:37:58;;;;;;;;;;;;;;;;;;10316171;28;20050;-88
2023/08/11 18:43:04;;;;;;;2.35;0.68;;;;;;;;;;10315215;28;20038;-88
2023/08/11 18:48:10;;;;;;;4.32;0.80;;;;;;;;;;10293677;28;20046;-88
2023/08/11 18:53:13;;;;;;;1.42;0.90;;;;;;;;;;10303670;28;20038;-88
2023/08/11 18:58:17;;;;;;;1.25;1.15;;;;;;;;;;10301134;28;20061;-88
2023/08/11 19:03:24;;;;;;;1.20;1.00;;;;;;;;;;10316941;28;20088;-88
2023/08/11 19:08:29;;;;;;;2.95;1.33;;;;;;;;;;10300389;28;20121;-89
2023/08/11 19:13:33;;;;;;;1.53;0.97;;;;;;;;;;10301211;28;20058;-88
2023/08/11 19:18:42;;;;;;;3.30;1.42;;;;;;;;;;10316597;28;20046;-88
2023/08/11 19:23:45;;;;;;;1.27;1.05;;;;;;;;;;10317522;28;20112;-88
2023/08/11 19:28:52;;;;;;;1.92;1.10;;;;;;;;;;10301089;28;20057;-86
2023/08/11 19:33:57;;;;;;;2.28;1.50;;;;;;;;;;10321713;28;20034;-88
2023/08/11 19:39:04;;;;;;;2.58;1.27;;;;;;;;;;10295383;28;20672;-88
2023/08/11 19:44:18;;;;;;;4.77;1.20;;;;;;;;;;10303432;28;20049;-88
2023/08/11 19:49:24;;;;;;;1.92;1.55;;;;;;;;;;10297971;28;20461;-88
2023/08/11 19:54:28;;;;;;;2.55;1.30;;;;;;;;;;10311557;28;20047;-88
2023/08/11 19:59:31;;;;;;;2.88;1.52;;;;;;;;;;10304234;28;20034;-88
2023/08/11 20:04:36;;;;;;;4.10;1.42;;;;;;;;;;10298000;28;20062;-88
2023/08/11 20:09:39;;;;;;;1.93;1.20;;;;;;;;;;10299175;28;20555;-88
2023/08/11 20:14:43;;;;;;;1.80;1.20;;;;;;;;;;10303143;28;20093;-88
2023/08/11 20:19:48;;;;;;;1.83;1.30;;;;;;;;;;10303558;28;20088;-88
2023/08/11 20:24:52;;;;;;;3.08;1.30;;;;;;;;;;10311577;28;20516;-87
2023/08/11 20:29:55;;;;;;;1.98;1.35;;;;;;;;;;10304189;28;20038;-88
2023/08/11 20:35:00;;;;;;;2.25;1.25;;;;;;;;;;10303291;28;20078;-88
2023/08/11 20:40:07;;;;;;;1.33;1.07;;;;;;;;;;10304234;28;20108;-88
2023/08/11 20:45:11;;;;;;;1.30;1.20;;;;;;;;;;10296654;28;20082;-88
2023/08/11 20:50:16;;;;;;;3.72;1.45;;;;;;;;;;10303690;28;20038;-89
2023/08/11 20:55:19;;;;;;;2.13;1.27;;;;;;;;;;10319230;28;20042;-88
2023/08/11 21:00:23;;;;;;;2.05;1.20;;;;;;;;;;10296849;28;20137;-88
2023/08/11 21:05:28;;;;;;;1.77;1.30;;;;;;;;;;10302006;28;20517;-88
2023/08/11 21:10:31;;;;;;;1.98;1.30;;;;;;;;;;10312855;28;20096;-88
2023/08/11 21:15:37;;;;;;;4.43;1.25;;;;;;;;;;10315134;28;20100;-88
2023/08/11 21:20:42;;;;;;;2.08;1.27;;;;;;;;;;10330351;28;20050;-89
2023/08/11 21:25:45;;;;;;;1.70;1.40;;;;;;;;;;10327723;28;20054;-89
2023/08/11 21:30:51;;;;;;;3.28;1.35;;;;;;;;;;10304150;28;20121;-89
2023/08/11 21:36:01;;;;;;;3.47;1.50;;;;;;;;;;10327015;28;20180;-88
2023/08/11 21:41:05;;;;;;;2.37;1.40;;;;;;;;;;10313983;28;20111;-88
2023/08/11 21:46:09;;;;;;;1.20;1.10;;;;;;;;;;10307655;28;20408;-89
2023/08/11 21:51:14;;;;;;;1.90;1.40;;;;;;;;;;10326330;28;20054;-89
2023/08/11 21:56:18;;;;;;;3.20;1.20;;;;;;;;;;10308140;28;20722;-89
2023/08/11 22:01:21;;;;;;;4.55;1.50;;;;;;;;;;10327578;28;20077;-90
2023/08/11 22:06:26;;;;;;;2.08;1.35;;;;;;;;;;10325879;28;20050;-89
2023/08/11 22:11:30;;;;;;;1.95;1.50;;;;;;;;;;10301107;28;20086;-90
2023/08/11 22:16:38;;;;;;;2.05;1.23;;;;;;;;;;10307555;28;20495;-89
2023/08/11 22:21:43;;;;;;;2.15;1.67;;;;;;;;;;10319947;28;20528;-89
2023/08/11 22:26:47;;;;;;;3.10;1.90;;;;;;;;;;10308364;28;20415;-89
2023/08/11 22:31:51;;;;;;;2.22;1.52;;;;;;;;;;10307897;28;20046;-88
2023/08/11 22:36:56;;;;;;;1.67;1.50;;;;;;;;;;10308846;28;20512;-89
2023/08/11 22:41:59;;;;;;;2.10;1.48;;;;;;;;;;10310953;28;20057;-91
2023/08/11 22:47:03;;;;;;;2.13;1.50;;;;;;;;;;10327255;28;20271;-91
2023/08/11 22:52:08;;;;;;;2.05;1.60;;;;;;;;;;10332479;28;20042;-90
2023/08/11 22:57:11;;;;;;;1.90;1.47;;;;;;;;;;10317555;28;20503;-90
2023/08/11 23:02:15;;;;;;;3.33;1.42;;;;;;;;;;10325421;28;20062;-89
2023/08/11 23:07:20;;;;;;;2.55;1.60;;;;;;;;;;10323925;28;20054;-89
2023/08/11 23:12:25;;;;;;;1.77;1.47;;;;;;;;;;10291995;28;20074;-90
2023/08/11 23:17:32;;;;;;;4.00;1.73;;;;;;;;;;10307834;28;20042;-90
2023/08/11 23:22:37;;;;;;;2.70;1.70;;;;;;;;;;10307277;28;20051;-91
2023/08/11 23:27:42;;;;;;;1.67;1.57;;;;;;;;;;10307131;28;20050;-90
2023/08/11 23:32:45;;;;;;;1.88;1.23;;;;;;;;;;10320798;28;20054;-90
2023/08/11 23:37:50;;;;;;;1.40;1.20;;;;;;;;;;10335834;28;20141;-90
2023/08/11 23:42:54;;;;;;;2.57;1.30;;;;;;;;;;10313906;28;20053;-89
2023/08/11 23:47:58;;;;;;;1.38;1.10;;;;;;;;;;10302859;28;20049;-91
2023/08/11 23:53:03;;;;;;;2.60;1.25;;;;;;;;;;10321509;28;20767;-90
2023/08/11 23:58:06;;;;;;;1.50;1.00;;;;;;;;;;10307130;28;20046;-91
